• Join FlightAware (Why Join?)
  • Login
  • US Flag 
08:47PM EST


 

Airport Tracker/Info


-or-


 

Live Flight TrackerFlight Track Log ✈ JZA8972 ✈ 22-Apr-2013 ✈ CYYZ - CYSJ

Flight Track Log - Related Links

Times and Time Zones

All times are in EDT time to prevent confusion due to time zone crossing. See the JZA8972 flight status page for this flight to view local times or setup timezone preferences in your user account.

Time Position Orientation Groundspeed Altitude Reporting Facility
EDT Latitude Longitude Course Direction KTS MPH feet Rate Location/Type
10:37PM 43.6667 -79.5833 235° Southwest 20 23 600  Level Toronto Center
10:41PM 43.6500 -79.6167 235° Southwest 130 150 600 60 Level Toronto Center
10:42PM 43.6667 -79.5833 55° Northeast 140 161 1,100 1,440 Climbing Toronto Center
10:43PM 43.7000 -79.5333 47° Northeast 190 219 3,500 2,100 Climbing Toronto Center
10:44PM 43.7333 -79.4500 61° Northeast 250 288 5,400 2,340 Climbing Toronto Center
10:45PM 43.7167 -79.3500 103° East 280 322 8,200 2,760 Climbing Toronto Center
10:46PM 43.7167 -79.2333 90° East 290 334 11,000 2,520 Climbing Toronto Center
10:47PM 43.7000 -79.1333 103° East 300 345 13,300 2,280 Climbing Toronto Center
10:48PM 43.7000 -79.0167 90° East 310 357 15,600 2,160 Climbing Toronto Center
10:49PM 43.7000 -78.9000 90° East 320 368 17,700 1,800 Climbing Toronto Center
10:50PM 43.6833 -78.7500 99° East 320 368 19,200 1,740 Climbing Toronto Center
10:51PM 43.7000 -78.6333 79° East 330 380 21,200 1,680 Climbing Toronto Center
10:52PM 43.7333 -78.5333 65° Northeast 340 391 22,600 1,440 Climbing Toronto Center
10:53PM 43.7667 -78.3833 73° East 350 403 24,100 1,320 Climbing Toronto Center
10:54PM 43.8000 -78.2667 68° East 360 414 25,300 1,200 Climbing Toronto Center
10:55PM 43.8500 -78.1333 62° Northeast 370 426 26,500 1,020 Climbing Toronto Center
10:56PM 43.8833 -77.9833 73° East 380 437 27,400 900 Climbing Toronto Center
10:57PM 43.9333 -77.8500 62° Northeast 390 449 28,300 900 Climbing Toronto Center
10:58PM 43.9833 -77.7167 62° Northeast 400 460 29,200 900 Climbing Toronto Center
10:59PM 44.0167 -77.5667 73° East 400 460 30,100 660 Climbing Toronto Center
11:00PM 44.0667 -77.4333 62° Northeast 410 472 30,600 480 Climbing Toronto Center
11:01PM 44.1000 -77.2833 73° East 410 472 31,100 420 Climbing Toronto Center
11:02PM 44.1500 -77.1500 62° Northeast 410 472 31,500 480 Climbing Toronto Center
11:03PM 44.2000 -77.0167 62° Northeast 420 483 32,100 540 Climbing Montreal Center
11:04PM 44.2500 -76.8833 62° Northeast 420 483 32,600 420 Climbing Montreal Center
11:05PM 44.3000 -76.7167 67° East 420 483 33,000 180 Climbing Montreal Center
11:06PM 44.3500 -76.5833 62° Northeast 430 495 33,000  Level Montreal Center
11:07PM 44.4000 -76.4167 67° East 440 506 33,000  Level Montreal Center
11:08PM 44.4500 -76.2500 67° East 450 518 33,000  Level Montreal Center
11:09PM 44.5000 -76.1167 62° Northeast 460 529 33,000  Level Montreal Center
11:10PM 44.5500 -75.9167 71° East 470 541 33,000  Level Montreal Center
11:11PM 44.6000 -75.7500 67° East 470 541 33,000  Level Montreal Center
11:12PM 44.6500 -75.6000 65° Northeast 480 552 33,000  Level Montreal Center
11:13PM 44.7000 -75.4000 71° East 480 552 33,000  Level Montreal Center
11:14PM 44.7500 -75.2333 67° East 480 552 33,000  Level Montreal Center
11:15PM 44.8000 -75.0500 69° East 480 552 33,000  Level Montreal Center
11:16PM 44.8500 -74.8667 69° East 490 564 33,000  Level Montreal Center
11:17PM 44.9000 -74.7000 67° East 490 564 33,000  Level Montreal Center
11:18PM 44.9500 -74.5000 70° East 490 564 33,000  Level Montreal Center
11:19PM 45.0000 -74.3333 67° East 490 564 33,000  Level Montreal Center
11:20PM 45.0167 -74.1500 83° East 490 564 33,000  Level Montreal Center
11:21PM 45.0500 -73.9500 77° East 490 564 33,000  Level Montreal Center
11:22PM 45.0833 -73.7667 75° East 490 564 33,000  Level Montreal Center
11:23PM 45.1333 -73.5667 70° East 490 564 33,000  Level Montreal Center
11:24PM 45.1667 -73.3833 75° East 500 575 33,000  Level Montreal Center
11:25PM 45.1833 -73.1833 83° East 500 575 33,000  Level Montreal Center
11:26PM 45.2167 -73.0000 75° East 500 575 33,000  Level Montreal Center
11:27PM 45.2667 -72.8000 70° East 500 575 33,000  Level Montreal Center
11:28PM 45.2833 -72.6167 83° East 510 587 33,000  Level Montreal Center
11:29PM 45.3000 -72.4000 84° East 510 587 33,000  Level Montreal Center
11:30PM 45.3000 -72.2000 90° East 500 575 33,000  Level Montreal Center
11:31PM 45.3167 -72.0167 83° East 510 587 33,000  Level Montreal Center
11:32PM 45.3333 -71.8000 84° East 510 587 33,000  Level Montreal Center
11:33PM 45.3333 -71.6000 90° East 510 587 33,000  Level Montreal Center
11:33PM 45.3539 -71.5747 41° Northeast 475 547 33,000  Level Boston Center
11:34PM 45.3603 -71.3503 88° East 499 574 33,000  Level Boston Center
11:35PM 45.3500 -71.2000 96° East 520 598 33,000  Level Montreal Center
11:36PM 45.3667 -71.0000 83° East 520 598 33,000  Level Montreal Center
11:36PM 45.3828 -70.9392 69° East 515 593 33,000  Level Boston Center
11:37PM 45.4028 -70.7375 82° East 515 593 33,000  Level Boston Center
11:38PM 45.4225 -70.5269 82° East 522 601 33,000  Level Boston Center
11:39PM 45.4419 -70.3192 82° East 522 601 33,000  Level Boston Center
11:40PM 45.4572 -70.1500 83° East 527 606 33,000  Level Boston Center
11:41PM 45.4756 -69.9183 83° East 527 606 33,000  Level Boston Center
11:42PM 45.4936 -69.7075 83° East 533 613 33,000  Level Boston Center
11:43PM 45.5111 -69.4903 83° East 543 625 33,000  Level Boston Center
11:44PM 45.5286 -69.2789 83° East 543 625 33,000  Level Boston Center
11:45PM 45.5475 -69.0586 83° East 543 625 33,000  Level Boston Center
11:46PM 45.5639 -68.8442 84° East 543 625 33,000  Level Boston Center
11:47PM 45.5797 -68.6267 84° East 548 631 33,000  Level Boston Center
11:48PM 45.5747 -68.4103 92° East 542 624 33,000  Level Boston Center
11:49PM 45.5517 -68.1778 98° East 535 616 33,000 -60 Level Boston Center
11:50PM 45.5167 -67.9500 102° East 550 633 32,900 -1,500 Descending Moncton Center
11:51PM 45.5047 -67.7694 95° East 545 627 30,000 -2,400 Descending Boston Center
11:52PM 45.4842 -67.5725 98° East 527 606 28,300 -2,820 Descending Boston Center
11:53PM 45.4500 -67.3833 104° East 440 506 24,300 -4,080 Descending Moncton Center
11:54PM 45.4167 -67.2333 108° East 400 460 20,000 -3,900 Descending Moncton Center
11:55PM 45.3833 -67.0833 108° East 390 449 16,600 -3,720 Descending Moncton Center
11:56PM 45.3500 -66.9500 110° East 370 426 12,600 -3,000 Descending Moncton Center
11:57PM 45.3167 -66.8167 110° East 330 380 10,700 -1,860 Descending Moncton Center
11:58PM 45.3000 -66.7333 106° East 280 322 8,900 -1,920 Descending Moncton Center
11:59PM 45.2667 -66.6333 115° Southeast 270 311 6,900 -1,860 Descending Moncton Center
12:00AM 45.2500 -66.5333 103° East 270 311 5,200 -1,500 Descending Moncton Center
12:01AM 45.2167 -66.4333 115° Southeast 250 288 3,900 -1,020 Descending Moncton Center
12:02AM 45.2000 -66.3500 106° East 240 276 3,200 -540 Descending Moncton Center
12:03AM 45.1833 -66.2500 103° East 230 265 2,900 -120 Descending Moncton Center
12:04AM 45.1833 -66.1833 90° East 200 230 3,000 -240 Climbing Moncton Center
12:05AM 45.1667 -66.1333 115° Southeast 170 196 2,500 -300 Descending Moncton Center
12:06AM 45.1500 -66.0500 106° East 170 196 2,500  Level Moncton Center
12:07AM 45.1667 -66.0167 55° Northeast 170 196 2,500 -120 Level Moncton Center
12:08AM 45.2000 -65.9667 47° Northeast 190 219 2,300 -600 Descending Moncton Center
12:09AM 45.2500 -65.9167 35° Northeast 170 196 1,400 -900 Descending Moncton Center